Time;durP1;ratioP1;P1;durP2;ratioP2;P2;SDS_P1;SDS_P2;PMS_P1;PMS_P2;Temp;Humidity;BMP_temperature;BMP_pressure;BME280_temperature;BME280_humidity;BME280_pressure;Samples;Min_cycle;Max_cycle;Signal;HPM_P1;HPM_P2
2022/06/06 00:04:59;;;;;;;1.13;0.70;;;16.70;61.30;18.80;94170.00;;;;10360373;28;45849;-65
2022/06/06 00:10:21;;;;;;;0.82;0.70;;;16.70;61.30;18.80;94152.00;;;;10359935;28;45740;-65
2022/06/06 00:15:42;;;;;;;1.15;0.80;;;16.60;61.20;18.70;94152.00;;;;10359385;28;45431;-65
2022/06/06 00:21:07;;;;;;;1.00;0.70;;;16.70;61.30;18.80;94152.00;;;;10360159;28;45762;-65
2022/06/06 00:26:32;;;;;;;1.00;0.80;;;16.60;61.20;18.80;94156.00;;;;10359535;28;45214;-65
2022/06/06 00:37:34;;;;;;;0.70;0.70;;;16.60;61.30;18.70;94148.00;;;;10359410;28;45143;-66
2022/06/06 00:42:56;;;;;;;0.80;0.70;;;16.70;61.30;18.70;94143.00;;;;10359077;28;45181;-66
2022/06/06 00:48:23;;;;;;;1.55;0.77;;;16.60;61.20;18.70;94155.00;;;;10358625;28;45801;-65
2022/06/06 00:53:47;;;;;;;1.10;0.90;;;16.60;61.20;18.70;94129.00;;;;10358546;28;45136;-66
2022/06/06 00:59:15;;;;;;;0.82;0.80;;;16.60;61.20;18.70;94142.00;;;;10356747;28;45506;-66
2022/06/06 01:04:36;;;;;;;0.90;0.75;;;16.60;61.20;18.70;94144.00;;;;10354273;28;45221;-67
2022/06/06 01:09:57;;;;;;;1.52;0.63;;;16.60;61.30;18.70;94119.00;;;;10356935;28;45242;-65
2022/06/06 01:15:23;;;;;;;1.75;0.70;;;16.60;61.20;18.70;94128.00;;;;10357763;28;45173;-66
2022/06/06 01:21:24;;;;;;;1.50;0.70;;;16.70;61.30;18.70;94123.00;;;;10357607;28;45714;-66
2022/06/06 01:26:59;;;;;;;0.65;0.65;;;16.70;61.30;18.70;94124.00;;;;10356688;28;45233;-67
2022/06/06 01:32:23;;;;;;;0.90;0.80;;;16.60;61.20;18.70;94118.00;;;;10357549;28;45721;-66
2022/06/06 01:37:44;;;;;;;0.75;0.65;;;16.60;61.30;18.70;94103.00;;;;10357330;28;45161;-66
2022/06/06 01:43:10;;;;;;;1.40;0.80;;;16.70;61.30;18.70;94100.00;;;;10356675;28;45393;-66
2022/06/06 01:48:36;;;;;;;0.88;0.70;;;16.60;61.30;18.70;94101.00;;;;10356667;28;45096;-66
2022/06/06 01:53:58;;;;;;;0.60;0.60;;;16.60;61.40;18.70;94099.00;;;;10356775;28;45291;-65
2022/06/06 01:59:18;;;;;;;1.10;0.80;;;16.60;61.30;18.70;94086.00;;;;10356493;28;45154;-67
2022/06/06 02:04:40;;;;;;;1.50;0.70;;;16.60;61.20;18.70;94070.00;;;;10356516;28;45243;-66
2022/06/06 02:10:00;;;;;;;1.10;0.80;;;16.60;61.20;18.70;94083.00;;;;10356719;28;45201;-67
2022/06/06 02:15:25;;;;;;;0.70;0.70;;;16.60;61.30;18.70;94079.00;;;;10355520;28;45164;-66
2022/06/06 02:20:47;;;;;;;1.00;0.77;;;16.60;61.30;18.70;94085.00;;;;10355967;28;45196;-66
2022/06/06 02:26:07;;;;;;;0.80;0.70;;;16.60;61.30;18.70;94076.00;;;;10355430;28;45254;-66
2022/06/06 02:31:28;;;;;;;1.10;0.80;;;16.60;61.20;18.70;94067.00;;;;10355964;28;45682;-66
2022/06/06 02:36:50;;;;;;;0.95;0.80;;;16.60;61.20;18.70;94077.00;;;;10355659;28;45482;-66
2022/06/06 02:42:11;;;;;;;1.25;0.90;;;16.60;61.20;18.70;94071.00;;;;10351591;28;45250;-66
2022/06/06 02:47:32;;;;;;;0.93;0.80;;;16.60;62.00;18.70;94072.00;;;;10352069;28;45753;-66
2022/06/06 02:52:55;;;;;;;1.55;0.90;;;16.60;61.30;18.70;94070.00;;;;10355074;28;45833;-67
2022/06/06 02:58:15;;;;;;;1.50;0.90;;;16.60;61.20;18.70;94052.00;;;;10354963;28;45316;-66
2022/06/06 03:03:37;;;;;;;0.90;0.80;;;16.60;61.30;18.70;94045.00;;;;10354549;28;45168;-66
2022/06/06 03:09:20;;;;;;;0.90;0.80;;;16.60;61.20;18.70;94044.00;;;;10354684;28;45111;-66
2022/06/06 03:15:03;;;;;;;0.85;0.70;;;16.60;61.10;18.70;94040.00;;;;10354680;28;45146;-65
2022/06/06 03:20:48;;;;;;;1.15;0.90;;;16.60;61.10;18.70;94051.00;;;;10354469;28;45193;-65
2022/06/06 03:26:19;;;;;;;1.52;0.90;;;16.60;61.10;18.70;94053.00;;;;10354129;28;45830;-66
2022/06/06 03:31:53;;;;;;;0.82;0.80;;;16.60;61.10;18.70;94040.00;;;;10361794;28;45222;-66
2022/06/06 03:37:21;;;;;;;1.55;0.98;;;16.60;61.10;18.70;94048.00;;;;10361200;28;45199;-65
2022/06/06 03:42:54;;;;;;;1.00;0.90;;;16.60;61.10;18.70;94046.00;;;;10360464;28;45885;-66
2022/06/06 03:48:29;;;;;;;1.25;0.90;;;16.60;61.10;18.70;94055.00;;;;10360393;28;45131;-66
2022/06/06 03:54:01;;;;;;;1.38;1.00;;;16.60;61.10;18.70;94052.00;;;;10359897;28;45670;-66
2022/06/06 03:59:23;;;;;;;1.00;0.90;;;16.60;61.00;18.70;94050.00;;;;10359944;28;45102;-67
2022/06/06 04:04:44;;;;;;;1.00;0.75;;;16.60;61.00;18.70;94059.00;;;;10360394;28;45108;-66
2022/06/06 04:10:08;;;;;;;1.10;0.90;;;16.60;61.20;18.60;94044.00;;;;10360351;28;45265;-66
2022/06/06 04:15:47;;;;;;;1.08;0.80;;;16.60;61.20;18.70;94058.00;;;;10359979;28;45189;-67
2022/06/06 04:21:21;;;;;;;1.80;0.80;;;16.60;61.20;18.60;94061.00;;;;10359977;28;45777;-66
2022/06/06 04:26:54;;;;;;;1.40;0.90;;;16.60;61.30;18.70;94065.00;;;;10359772;28;45111;-66
2022/06/06 04:32:27;;;;;;;0.90;0.80;;;16.60;61.10;18.70;94055.00;;;;10360310;28;45277;-66
2022/06/06 04:37:57;;;;;;;1.08;0.80;;;16.60;61.20;18.70;94078.00;;;;10359341;28;45177;-66
2022/06/06 04:43:26;;;;;;;1.30;0.85;;;16.60;62.00;18.70;94062.00;;;;10358689;28;45678;-66
2022/06/06 04:48:48;;;;;;;1.08;0.70;;;16.60;61.10;18.70;94079.00;;;;10359333;28;45442;-66
2022/06/06 04:54:15;;;;;;;1.10;0.80;;;16.60;61.10;18.70;94077.00;;;;10359332;28;45202;-67
2022/06/06 04:59:38;;;;;;;1.17;0.95;;;16.60;61.10;18.70;94082.00;;;;10357358;28;45274;-67
2022/06/06 05:05:00;;;;;;;1.15;0.82;;;16.60;61.10;18.70;94089.00;;;;10357801;28;45823;-66
2022/06/06 05:10:43;;;;;;;1.85;0.90;;;16.60;61.00;18.60;94069.00;;;;10358037;28;45162;-67
2022/06/06 05:16:31;;;;;;;0.70;0.60;;;16.60;61.00;18.60;94084.00;;;;10356680;28;45209;-67
2022/06/06 05:22:14;;;;;;;1.52;0.98;;;16.60;61.00;18.60;94081.00;;;;10356764;28;45193;-66
2022/06/06 05:27:59;;;;;;;0.80;0.80;;;16.60;61.00;18.70;94082.00;;;;10358210;28;45905;-67
2022/06/06 05:33:28;;;;;;;1.63;1.08;;;16.60;61.00;18.60;94081.00;;;;10357654;28;45135;-66
2022/06/06 05:39:15;;;;;;;1.35;1.02;;;16.60;61.00;18.70;94089.00;;;;10357158;28;45683;-66
2022/06/06 05:45:01;;;;;;;0.85;0.80;;;16.60;61.00;18.70;94085.00;;;;10326279;28;45257;-66
2022/06/06 05:50:35;;;;;;;0.85;0.70;;;16.60;61.00;18.60;94094.00;;;;10316529;28;45254;-66
2022/06/06 05:56:30;;;;;;;0.80;0.80;;;16.60;61.00;18.70;94100.00;;;;10316139;28;45800;-66
2022/06/06 06:02:20;;;;;;;2.13;1.00;;;16.60;61.00;18.70;94104.00;;;;10274897;28;45132;-66
2022/06/06 06:07:53;;;;;;;1.80;1.00;;;16.60;61.00;18.70;94099.00;;;;10274758;28;45204;-67
2022/06/06 06:13:33;;;;;;;1.15;0.80;;;16.60;60.50;18.70;94111.00;;;;10274725;28;45088;-66
2022/06/06 06:19:01;;;;;;;1.10;0.77;;;16.60;61.30;18.70;94116.00;;;;10273401;28;45253;-65
2022/06/06 06:24:30;;;;;;;1.30;0.90;;;16.60;61.00;18.70;94131.00;;;;10273893;28;45172;-66
2022/06/06 06:29:52;;;;;;;1.10;0.80;;;16.60;61.00;18.70;94139.00;;;;10274081;28;45188;-65
2022/06/06 06:35:18;;;;;;;1.17;0.90;;;16.60;61.00;18.70;94148.00;;;;10273648;28;45676;-65
2022/06/06 06:40:50;;;;;;;2.17;0.90;;;16.60;61.10;18.70;94140.00;;;;10304949;28;45316;-65
2022/06/06 06:46:19;;;;;;;1.10;1.00;;;16.60;60.80;18.70;94162.00;;;;10273472;28;45827;-66
2022/06/06 06:51:54;;;;;;;1.48;0.90;;;16.60;61.00;18.70;94164.00;;;;10273192;28;45887;-65
2022/06/06 06:57:33;;;;;;;1.02;0.90;;;16.60;60.90;18.70;94158.00;;;;10274041;28;45848;-65
2022/06/06 07:09:25;;;;;;;1.77;0.93;;;16.60;60.80;18.70;94160.00;;;;10273815;28;45059;-65
2022/06/06 07:15:10;;;;;;;1.77;0.85;;;16.60;60.70;18.70;94166.00;;;;10273287;28;45100;-66
2022/06/06 07:20:34;;;;;;;3.08;0.90;;;16.60;60.60;18.70;94169.00;;;;10272944;28;45820;-65
2022/06/06 07:25:57;;;;;;;1.33;0.90;;;16.60;60.70;18.70;94162.00;;;;10272155;28;45168;-66
2022/06/06 07:31:27;;;;;;;2.65;1.05;;;16.60;60.60;18.70;94183.00;;;;10273345;28;45850;-66
2022/06/06 07:37:05;;;;;;;2.33;0.80;;;16.60;60.50;18.70;94180.00;;;;10272787;28;45136;-65
2022/06/06 07:42:56;;;;;;;1.73;0.85;;;16.60;60.30;18.70;94176.00;;;;10272798;28;45324;-65
2022/06/06 07:48:42;;;;;;;3.22;0.90;;;16.60;60.20;18.70;94181.00;;;;10289628;28;45844;-65
2022/06/06 07:54:18;;;;;;;2.47;1.00;;;16.70;60.40;18.70;94184.00;;;;10302834;28;45157;-65
2022/06/06 07:59:52;;;;;;;1.52;0.80;;;16.60;60.30;18.70;94159.00;;;;10285518;28;45779;-65
2022/06/06 08:05:55;;;;;;;1.45;1.02;;;16.60;60.30;18.70;94171.00;;;;10271689;28;45285;-65
2022/06/06 08:11:32;;;;;;;2.33;0.82;;;16.60;60.30;18.70;94167.00;;;;10271826;28;45192;-65
2022/06/06 08:17:02;;;;;;;1.83;0.80;;;16.60;60.30;18.70;94185.00;;;;10275709;28;45895;-65
2022/06/06 08:22:25;;;;;;;1.48;0.95;;;16.60;60.20;18.70;94167.00;;;;10280102;28;45227;-65
2022/06/06 08:27:51;;;;;;;3.22;0.90;;;16.60;60.20;18.70;94165.00;;;;10278328;28;45317;-65
2022/06/06 08:33:12;;;;;;;1.02;0.80;;;16.60;60.20;18.70;94160.00;;;;10306281;28;45992;-66
2022/06/06 08:38:48;;;;;;;1.98;0.88;;;16.60;60.90;18.70;94158.00;;;;10317753;28;45109;-65
2022/06/06 08:44:27;;;;;;;2.05;0.85;;;16.60;60.10;18.80;94155.00;;;;10317442;28;45393;-65
2022/06/06 08:50:46;;;;;;;0.90;0.65;;;16.70;60.20;18.80;94160.00;;;;10317634;28;45227;-65
2022/06/06 08:56:15;;;;;;;;;;;16.70;59.90;18.80;94151.00;;;;10317903;28;45160;-65
2022/06/06 09:02:08;;;;;;;2.13;0.90;;;16.70;60.00;18.90;94146.00;;;;10306708;28;45169;-65
2022/06/06 09:08:30;;;;;;;1.90;0.70;;;16.80;60.40;18.90;94138.00;;;;10295062;28;45408;-65
2022/06/06 09:14:30;;;;;;;1.63;0.70;;;16.80;60.40;18.90;94150.00;;;;10276255;28;45175;-65
2022/06/06 09:20:51;;;;;;;2.28;0.85;;;16.80;60.60;18.90;94134.00;;;;10327824;28;45679;-66
2022/06/06 09:26:25;;;;;;;1.58;0.80;;;16.80;59.90;19.00;94132.00;;;;10331941;28;45807;-66
2022/06/06 09:32:38;;;;;;;1.80;0.73;;;16.90;60.00;19.00;94123.00;;;;10322445;28;45114;-66
2022/06/06 09:38:13;;;;;;;0.75;0.70;;;16.90;60.10;19.00;94123.00;;;;10323922;28;45170;-66
2022/06/06 09:43:55;;;;;;;1.35;0.77;;;16.90;59.90;19.00;94123.00;;;;10357240;28;45457;-66
2022/06/06 09:49:49;;;;;;;2.97;0.75;;;16.90;60.40;19.00;94119.00;;;;10356783;28;45095;-67
2022/06/06 10:03:01;;;;;;;3.05;0.90;;;16.90;60.20;19.00;94120.00;;;;10334573;28;45858;-67
2022/06/06 10:09:13;;;;;;;1.02;0.80;;;16.90;60.50;19.00;94119.00;;;;10270430;28;45318;-67
2022/06/06 10:14:55;;;;;;;1.38;0.80;;;16.90;60.30;19.00;94112.00;;;;10296502;28;46109;-67
2022/06/06 10:20:43;;;;;;;2.58;0.80;;;16.90;60.40;19.00;94105.00;;;;10356097;28;45122;-67
2022/06/06 10:26:55;;;;;;;1.42;0.70;;;16.90;60.10;19.10;94116.00;;;;10342195;28;45115;-67
2022/06/06 10:32:42;;;;;;;0.95;0.70;;;17.00;59.90;19.00;94097.00;;;;10309224;28;45776;-67
2022/06/06 10:38:32;;;;;;;1.23;0.80;;;16.90;60.00;19.00;94094.00;;;;10314263;28;46022;-66
2022/06/06 10:44:38;;;;;;;1.23;0.88;;;17.00;59.90;19.00;94094.00;;;;10314577;28;45191;-67
2022/06/06 10:50:09;;;;;;;1.33;0.95;;;17.00;59.90;19.00;94091.00;;;;10291423;28;45159;-67
2022/06/06 10:56:05;;;;;;;1.33;0.80;;;17.00;59.70;19.10;94087.00;;;;10314563;28;45175;-67
2022/06/06 11:02:26;;;;;;;1.23;0.70;;;16.90;59.60;19.00;94083.00;;;;10294380;28;45888;-67
2022/06/06 11:08:39;;;;;;;2.28;0.85;;;17.00;59.80;19.00;94068.00;;;;10313863;28;45219;-67
2022/06/06 11:14:05;;;;;;;2.47;0.80;;;16.90;59.60;19.00;94075.00;;;;10313457;28;45703;-66
2022/06/06 11:20:35;;;;;;;0.77;0.50;;;16.90;59.60;19.00;94074.00;;;;10314231;28;45668;-67
2022/06/06 11:26:42;;;;;;;1.50;0.70;;;16.90;59.50;19.00;94061.00;;;;10313693;28;45290;-67
2022/06/06 11:32:22;;;;;;;0.90;0.70;;;17.00;59.50;19.00;94065.00;;;;10313603;28;45236;-66
2022/06/06 11:38:26;;;;;;;0.93;0.60;;;16.90;59.40;19.00;94058.00;;;;10313320;28;45890;-66
2022/06/06 11:44:20;;;;;;;1.00;0.80;;;16.90;59.30;19.00;94042.00;;;;10312739;28;45735;-66
2022/06/06 11:50:28;;;;;;;1.30;0.70;;;16.90;59.40;19.00;94040.00;;;;10315963;28;45284;-67
2022/06/06 11:56:05;;;;;;;1.23;0.70;;;17.00;59.40;19.00;94043.00;;;;10319798;28;45294;-67
2022/06/06 12:01:56;;;;;;;;;;;16.90;59.30;19.10;94036.00;;;;10320490;28;45110;-67
2022/06/06 12:08:10;;;;;;;1.05;0.80;;;17.00;59.30;19.10;94035.00;;;;10318857;28;45167;-67
2022/06/06 12:14:06;;;;;;;2.75;0.70;;;17.00;59.40;19.10;94015.00;;;;10318076;28;45866;-67
2022/06/06 12:20:03;;;;;;;1.55;0.80;;;17.00;59.30;19.10;94010.00;;;;10318138;28;45112;-67
2022/06/06 12:25:58;;;;;;;1.17;0.80;;;17.00;59.20;19.10;94001.00;;;;10318243;28;45799;-67
2022/06/06 12:31:59;;;;;;;2.00;1.00;;;17.00;59.30;19.10;93987.00;;;;10317650;28;45174;-67
2022/06/06 12:37:26;;;;;;;1.27;0.80;;;17.00;59.20;19.10;93989.00;;;;10316118;28;48094;-67
2022/06/06 12:42:59;;;;;;;2.03;0.95;;;17.00;59.10;19.10;93991.00;;;;10317215;28;45095;-67
2022/06/06 12:48:56;;;;;;;1.38;0.70;;;17.00;59.10;19.10;93993.00;;;;10317073;28;45206;-67
2022/06/06 13:01:37;;;;;;;2.67;1.15;;;17.10;59.10;19.10;93976.00;;;;10316053;28;45249;-67
2022/06/06 13:06:22;;;;;;;1.60;0.88;;;17.10;59.10;19.10;93971.00;;;;10315588;28;45325;-67
2022/06/06 13:11:53;;;;;;;3.05;0.80;;;17.00;59.10;19.10;93968.00;;;;10316234;28;45755;-67
2022/06/06 13:17:31;;;;;;;2.17;0.88;;;17.10;59.00;19.20;93964.00;;;;10315897;28;45186;-68
2022/06/06 13:23:32;;;;;;;3.50;1.27;;;17.10;58.90;19.20;93968.00;;;;10315998;28;45239;-67
2022/06/06 13:28:56;;;;;;;2.38;1.10;;;17.10;58.90;19.20;93973.00;;;;10307476;28;45784;-67
2022/06/06 13:34:30;;;;;;;2.35;0.98;;;17.10;59.00;19.20;93964.00;;;;10315615;28;45159;-67
2022/06/06 13:40:16;;;;;;;2.35;0.90;;;17.10;59.00;19.20;93963.00;;;;10315272;28;45300;-67
2022/06/06 13:45:47;;;;;;;3.03;0.75;;;17.10;58.90;19.20;93955.00;;;;10314172;28;45326;-67
2022/06/06 13:51:23;;;;;;;2.05;0.85;;;17.10;58.90;19.20;93958.00;;;;10315377;28;45234;-67
2022/06/06 13:57:24;;;;;;;3.17;1.15;;;17.10;59.00;19.20;93957.00;;;;10314427;28;45160;-67
2022/06/06 14:02:59;;;;;;;2.25;1.08;;;17.10;59.10;19.20;93942.00;;;;10305811;28;45289;-67
2022/06/06 14:08:21;;;;;;;2.15;1.00;;;17.10;59.00;19.20;93930.00;;;;10314437;28;45170;-67
2022/06/06 14:13:49;;;;;;;2.72;0.98;;;17.10;58.80;19.20;93926.00;;;;10313353;28;45747;-67
2022/06/06 14:19:13;;;;;;;2.35;0.85;;;17.10;58.90;19.20;93945.00;;;;10314121;28;45243;-67
2022/06/06 14:24:37;;;;;;;3.10;1.10;;;17.10;59.20;19.20;93935.00;;;;10313572;28;45175;-67
2022/06/06 14:30:02;;;;;;;2.45;1.00;;;17.10;59.00;19.20;93941.00;;;;10329779;28;45707;-66
2022/06/06 14:35:38;;;;;;;2.63;1.23;;;17.10;59.10;19.20;93938.00;;;;10356132;28;45206;-67
2022/06/06 14:41:07;;;;;;;2.05;0.90;;;17.20;59.10;19.30;93926.00;;;;10310596;28;45201;-67
2022/06/06 14:46:44;;;;;;;1.30;0.90;;;17.20;58.80;19.30;93949.00;;;;10313904;28;45174;-67
2022/06/06 14:52:16;;;;;;;3.75;1.20;;;17.20;58.80;19.20;93932.00;;;;10314339;28;45782;-66
2022/06/06 14:57:38;;;;;;;3.35;1.10;;;17.20;59.00;19.20;93944.00;;;;10314280;28;45111;-67
2022/06/06 15:03:03;;;;;;;2.50;0.88;;;17.20;59.10;19.30;93943.00;;;;10314485;28;45558;-67
2022/06/06 15:08:30;;;;;;;2.25;0.80;;;17.20;59.20;19.30;93939.00;;;;10349500;28;45878;-66
2022/06/06 15:13:56;;;;;;;2.72;1.20;;;17.20;59.10;19.30;93938.00;;;;10350867;28;45243;-66
2022/06/06 15:19:22;;;;;;;2.35;1.10;;;17.20;59.40;19.30;93949.00;;;;10354372;28;45154;-66
2022/06/06 15:24:45;;;;;;;2.63;1.10;;;17.20;59.20;19.30;93939.00;;;;10357336;28;45336;-67
2022/06/06 15:30:13;;;;;;;1.98;0.85;;;17.20;59.50;19.30;93937.00;;;;10361343;28;45123;-67
2022/06/06 15:35:51;;;;;;;2.00;1.10;;;17.20;59.40;19.30;93936.00;;;;10361082;28;45878;-67
2022/06/06 15:41:27;;;;;;;2.10;1.00;;;17.20;59.40;19.30;93933.00;;;;10353066;28;45203;-67
2022/06/06 15:46:58;;;;;;;2.63;1.20;;;17.20;59.60;19.30;93942.00;;;;10304424;28;45389;-66
2022/06/06 15:52:44;;;;;;;3.15;1.00;;;17.20;59.50;19.30;93944.00;;;;10319895;28;45117;-66
2022/06/06 15:58:28;;;;;;;3.15;1.05;;;17.20;60.10;19.30;93938.00;;;;10319907;28;45112;-66
2022/06/06 16:04:23;;;;;;;3.28;1.08;;;17.20;59.70;19.30;93926.00;;;;10319481;28;45687;-66
2022/06/06 16:09:57;;;;;;;2.75;1.10;;;17.30;60.00;19.40;93933.00;;;;10307345;28;45460;-66
2022/06/06 16:15:32;;;;;;;2.40;1.20;;;17.30;59.40;19.40;93924.00;;;;10319229;28;45858;-67
2022/06/06 16:20:58;;;;;;;1.75;0.80;;;17.30;59.30;19.40;93922.00;;;;10319201;28;45227;-67
2022/06/06 16:26:22;;;;;;;2.75;1.00;;;17.30;59.30;19.40;93930.00;;;;10316403;28;45126;-66
2022/06/06 16:31:50;;;;;;;2.22;1.10;;;17.30;59.90;19.40;93922.00;;;;10306441;28;45422;-66
2022/06/06 16:37:13;;;;;;;3.28;1.10;;;17.30;59.00;19.40;93921.00;;;;10276902;28;45757;-66
2022/06/06 16:48:29;;;;;;;2.97;1.10;;;17.40;59.50;19.50;93913.00;;;;10318124;28;45178;-67
2022/06/06 16:54:14;;;;;;;4.25;0.82;;;17.40;58.80;19.50;93911.00;;;;10303266;28;45190;-66
2022/06/06 16:59:56;;;;;;;2.42;1.27;;;17.40;58.80;19.50;93915.00;;;;10275615;28;45206;-66
2022/06/06 17:11:42;;;;;;;2.67;1.30;;;17.40;59.00;19.40;93900.00;;;;10192587;28;45174;-67
2022/06/06 17:17:14;;;;;;;2.47;1.00;;;17.30;59.20;19.40;93896.00;;;;10270339;28;45712;-69
2022/06/06 17:22:36;;;;;;;2.58;1.10;;;17.30;58.80;19.40;93904.00;;;;10275950;28;45239;-66
2022/06/06 17:28:43;;;;;;;1.75;1.10;;;17.30;59.60;19.40;93889.00;;;;10276314;28;45679;-66
2022/06/06 17:34:15;;;;;;;3.63;0.88;;;17.30;59.70;19.40;93892.00;;;;10338911;28;45146;-67
2022/06/06 17:39:44;;;;;;;1.80;0.95;;;17.30;59.50;19.30;93908.00;;;;10357021;28;45886;-67
2022/06/06 17:45:25;;;;;;;1.77;1.08;;;17.30;59.70;19.30;93901.00;;;;10357108;28;45149;-66
2022/06/06 17:50:55;;;;;;;1.95;1.00;;;17.20;59.70;19.30;93912.00;;;;10357561;28;45769;-67
2022/06/06 17:56:33;;;;;;;1.77;1.05;;;17.20;60.00;19.30;93908.00;;;;10356127;28;45162;-67
2022/06/06 18:02:53;;;;;;;2.45;1.30;;;17.20;59.80;19.30;93906.00;;;;10275609;28;45775;-66
2022/06/06 18:09:01;;;;;;;2.08;1.05;;;17.20;59.90;19.30;93900.00;;;;10274931;28;45295;-66
2022/06/06 18:14:35;;;;;;;2.23;1.10;;;17.10;59.90;19.30;93901.00;;;;10275156;28;45164;-67
2022/06/06 18:19:56;;;;;;;2.15;0.93;;;17.20;59.70;19.30;93906.00;;;;10275365;28;45129;-69
2022/06/06 18:25:25;;;;;;;3.75;1.10;;;17.20;59.50;19.40;93915.00;;;;10274706;28;45772;-64
2022/06/06 18:30:51;;;;;;;1.83;1.08;;;17.30;60.10;19.40;93922.00;;;;10274594;28;45699;-64
2022/06/06 18:36:12;;;;;;;2.13;1.17;;;17.30;59.90;19.40;93916.00;;;;10273632;28;45191;-67
2022/06/06 18:41:39;;;;;;;2.10;1.10;;;17.30;60.00;19.40;93931.00;;;;10274603;28;45228;-68
2022/06/06 18:47:02;;;;;;;3.63;1.38;;;17.20;60.10;19.40;93911.00;;;;10273623;28;45244;-68
2022/06/06 18:52:27;;;;;;;2.45;1.05;;;17.30;59.70;19.40;93923.00;;;;10274285;28;45172;-67
2022/06/06 18:58:01;;;;;;;4.85;1.23;;;17.30;59.90;19.40;93935.00;;;;10272704;28;45788;-68
2022/06/06 19:03:37;;;;;;;2.03;1.02;;;17.30;59.90;19.40;93921.00;;;;10273339;28;45197;-68
2022/06/06 19:09:01;;;;;;;5.10;1.73;;;17.30;60.30;19.40;93930.00;;;;10273067;28;45331;-67
2022/06/06 19:14:26;;;;;;;9.40;2.58;;;17.30;60.20;19.30;93928.00;;;;10273171;28;45252;-68
2022/06/06 19:19:53;;;;;;;4.47;1.70;;;17.20;60.00;19.40;93937.00;;;;10273473;28;45175;-70
2022/06/06 19:25:14;;;;;;;7.93;2.30;;;17.20;60.30;19.40;93928.00;;;;10273317;28;45839;-67
2022/06/06 19:30:35;;;;;;;5.88;2.30;;;17.20;60.20;19.40;93940.00;;;;10273195;28;45221;-67
2022/06/06 19:36:01;;;;;;;7.60;2.70;;;17.30;60.00;19.40;93950.00;;;;10272318;28;45293;-64
2022/06/06 19:41:28;;;;;;;7.70;2.35;;;17.30;60.10;19.40;93944.00;;;;10284288;28;45700;-67
2022/06/06 19:46:57;;;;;;;8.13;2.50;;;17.30;60.00;19.30;93938.00;;;;10312243;28;45184;-67
2022/06/06 19:52:25;;;;;;;7.43;2.17;;;17.20;60.10;19.30;93935.00;;;;10293971;28;45678;-67
2022/06/06 19:57:46;;;;;;;7.78;2.25;;;17.20;59.90;19.30;93953.00;;;;10271686;28;45264;-67
2022/06/06 20:03:16;;;;;;;8.25;2.55;;;17.20;59.80;19.30;93953.00;;;;10288095;28;45894;-67
2022/06/06 20:08:39;;;;;;;5.72;2.15;;;17.10;59.60;19.20;93950.00;;;;10268815;28;45150;-67
2022/06/06 20:14:03;;;;;;;7.53;2.45;;;17.10;59.50;19.20;93944.00;;;;10284999;28;45456;-67
2022/06/06 20:19:34;;;;;;;3.60;1.63;;;17.10;59.40;19.20;93940.00;;;;10276386;28;45232;-67
2022/06/06 20:25:01;;;;;;;5.50;2.10;;;17.10;59.50;19.20;93938.00;;;;10278948;28;45177;-67
2022/06/06 20:30:24;;;;;;;;;;;17.10;59.40;19.20;93946.00;;;;10278377;28;45283;-67
2022/06/06 20:35:44;;;;;;;5.85;1.95;;;17.10;59.30;19.20;93947.00;;;;10281002;28;45833;-67
2022/06/06 20:41:08;;;;;;;5.15;1.80;;;17.10;59.40;19.20;93941.00;;;;10278213;28;46320;-67
2022/06/06 20:46:30;;;;;;;6.85;2.08;;;17.10;59.40;19.20;93944.00;;;;10277672;28;45168;-67
2022/06/06 20:51:54;;;;;;;4.68;1.75;;;17.10;59.40;19.20;93948.00;;;;10319588;28;45159;-67
2022/06/06 20:57:25;;;;;;;3.25;1.70;;;17.10;59.40;19.20;93928.00;;;;10317617;28;45176;-67
2022/06/06 21:02:46;;;;;;;4.47;1.73;;;17.00;59.30;19.10;93948.00;;;;10318263;28;45870;-67
2022/06/06 21:08:12;;;;;;;5.53;2.05;;;17.00;59.30;19.10;93960.00;;;;10317744;28;45183;-67
2022/06/06 21:13:34;;;;;;;3.50;1.55;;;17.00;59.30;19.10;93954.00;;;;10317533;28;45405;-67
2022/06/06 21:18:55;;;;;;;4.80;1.42;;;17.00;59.30;19.10;93956.00;;;;10317421;28;45243;-67
2022/06/06 21:24:21;;;;;;;5.22;1.90;;;17.00;59.30;19.10;93947.00;;;;10316715;28;45253;-68
2022/06/06 21:29:44;;;;;;;4.65;1.70;;;17.00;59.30;19.10;93958.00;;;;10317007;28;45519;-67
2022/06/06 21:35:08;;;;;;;4.93;1.40;;;17.00;59.30;19.10;93967.00;;;;10316880;28;45156;-67
2022/06/06 21:40:30;;;;;;;4.50;1.45;;;17.00;59.30;19.10;93970.00;;;;10316949;28;45062;-66
2022/06/06 21:45:52;;;;;;;3.60;1.40;;;17.00;59.30;19.10;93972.00;;;;10316583;28;45138;-66
2022/06/06 21:56:54;;;;;;;4.35;1.45;;;17.00;59.20;19.10;93963.00;;;;10316073;28;45735;-66
2022/06/06 22:02:15;;;;;;;6.15;1.45;;;17.00;59.30;19.10;93975.00;;;;10316259;28;45177;-67
2022/06/06 22:07:36;;;;;;;3.72;1.50;;;16.90;59.20;19.10;93962.00;;;;10315736;28;45212;-67
2022/06/06 22:12:57;;;;;;;3.22;1.20;;;16.90;59.20;19.10;93968.00;;;;10315597;28;45787;-66
2022/06/06 22:18:19;;;;;;;2.20;1.10;;;16.90;59.20;19.00;93955.00;;;;10315753;28;45151;-66
2022/06/06 22:23:42;;;;;;;2.10;1.20;;;16.90;59.20;19.00;93977.00;;;;10315597;28;45160;-67
2022/06/06 22:29:03;;;;;;;2.90;1.17;;;16.90;59.20;19.00;93972.00;;;;10315388;28;45759;-66
2022/06/06 22:34:25;;;;;;;2.67;1.13;;;16.90;59.30;19.00;93968.00;;;;10314417;28;45239;-66
2022/06/06 22:39:46;;;;;;;2.38;1.10;;;16.90;59.30;19.00;93962.00;;;;10315105;28;45174;-67
2022/06/06 22:45:08;;;;;;;2.22;1.30;;;16.90;59.30;19.00;93955.00;;;;10314184;28;45862;-66
2022/06/06 22:50:30;;;;;;;2.90;1.10;;;16.90;59.30;19.00;93960.00;;;;10314867;28;45676;-67
2022/06/06 22:55:56;;;;;;;2.55;1.27;;;16.90;59.30;19.00;93965.00;;;;10314374;28;46100;-67
2022/06/06 23:01:19;;;;;;;2.53;0.90;;;16.90;59.30;19.00;93964.00;;;;10314492;28;45220;-66
2022/06/06 23:06:41;;;;;;;2.20;0.90;;;16.90;59.30;19.00;93950.00;;;;10314184;28;45668;-67
2022/06/06 23:12:01;;;;;;;1.52;0.60;;;16.90;59.30;19.00;93947.00;;;;10314259;28;45864;-67
2022/06/06 23:17:22;;;;;;;2.55;0.90;;;16.90;59.30;19.00;93948.00;;;;10313599;28;45180;-66
2022/06/06 23:22:44;;;;;;;3.40;1.30;;;16.90;59.40;19.00;93957.00;;;;10313868;28;45668;-66
2022/06/06 23:28:06;;;;;;;2.45;1.00;;;16.90;59.30;19.00;93940.00;;;;10313402;28;45771;-67
2022/06/06 23:33:29;;;;;;;1.25;0.80;;;16.90;59.40;19.00;93939.00;;;;10313342;28;45207;-66
2022/06/06 23:38:57;;;;;;;1.95;0.85;;;16.90;59.40;19.00;93943.00;;;;10313556;28;45157;-66
2022/06/06 23:49:56;;;;;;;0.80;0.73;;;16.90;59.40;18.90;93933.00;;;;10319642;28;45171;-67
2022/06/06 23:55:18;;;;;;;2.08;0.70;;;16.80;59.40;18.90;93926.00;;;;10320251;28;45783;-66
